createdAt,value
2019-02-16T00:01:09.856Z,102531.04
2019-02-16T00:03:40.297Z,102523.77
2019-02-16T00:06:10.749Z,102522.77
2019-02-16T00:08:41.205Z,102517.27
2019-02-16T00:11:11.688Z,102518.91
2019-02-16T00:13:42.069Z,102520.17
2019-02-16T00:16:12.348Z,102514.86
2019-02-16T00:18:42.873Z,102522.41
2019-02-16T00:21:13.651Z,102515.80
2019-02-16T00:23:44.093Z,102520.22
2019-02-16T00:26:14.816Z,102519.02
2019-02-16T00:28:45.138Z,102527.59
2019-02-16T00:31:15.651Z,102529.71
2019-02-16T00:33:46.236Z,102521.25
2019-02-16T00:36:16.845Z,102526.88
2019-02-16T00:38:47.176Z,102524.03
2019-02-16T00:41:17.421Z,102513.81
2019-02-16T00:43:47.711Z,102516.33
2019-02-16T00:46:18.243Z,102518.47
2019-02-16T00:48:48.629Z,102517.10
2019-02-16T00:51:19.218Z,102515.46
2019-02-16T00:53:49.721Z,102507.53
2019-02-16T00:56:20.344Z,102505.14
2019-02-16T00:58:50.754Z,102507.70
2019-02-16T01:01:21.091Z,102504.76
2019-02-16T01:03:51.489Z,102498.70
2019-02-16T01:06:22.310Z,102496.52
2019-02-16T01:08:52.648Z,102501.05
2019-02-16T01:11:24.000Z,102497.82
2019-02-16T01:13:54.256Z,102497.11
2019-02-16T01:16:24.550Z,102490.44
2019-02-16T01:18:54.830Z,102490.44
2019-02-16T01:21:25.106Z,102490.55
2019-02-16T01:23:55.375Z,102488.16
2019-02-16T01:26:25.644Z,102486.52
2019-02-16T01:28:55.923Z,102477.00
2019-02-16T01:31:26.192Z,102481.00
2019-02-16T01:33:56.455Z,102476.09
2019-02-16T01:36:26.724Z,102480.19
2019-02-16T01:38:57.000Z,102479.25
2019-02-16T01:41:27.299Z,102480.23
2019-02-16T01:43:57.572Z,102470.29
2019-02-16T01:46:27.837Z,102463.20
2019-02-16T01:48:58.124Z,102463.08
2019-02-16T01:51:31.854Z,102469.04
2019-02-16T01:54:00.424Z,102449.70
2019-02-16T01:56:30.687Z,102447.96
2019-02-16T01:59:00.967Z,102442.49
2019-02-16T02:01:31.366Z,102442.83
2019-02-16T02:04:01.654Z,102434.47
2019-02-16T02:06:32.005Z,102442.33
2019-02-16T02:09:02.249Z,102431.09
2019-02-16T02:11:34.098Z,102430.20
2019-02-16T02:14:04.367Z,102430.27
2019-02-16T02:16:34.694Z,102418.03
2019-02-16T02:19:04.975Z,102420.23
2019-02-16T02:21:41.180Z,102423.77
2019-02-16T02:24:07.254Z,102418.97
2019-02-16T02:26:37.545Z,102423.92
2019-02-16T02:29:07.805Z,102416.57
2019-02-16T02:31:38.083Z,102418.36
2019-02-16T02:34:08.354Z,102412.53
2019-02-16T02:36:38.684Z,102416.17
2019-02-16T02:39:08.914Z,102412.25
2019-02-16T02:41:39.179Z,102411.16
2019-02-16T02:44:09.453Z,102405.80
2019-02-16T02:46:39.741Z,102402.70
2019-02-16T02:49:10.008Z,102401.89
2019-02-16T02:51:40.279Z,102402.09
2019-02-16T02:54:10.718Z,102396.41
2019-02-16T02:56:41.155Z,102399.69
2019-02-16T02:59:11.416Z,102398.77
2019-02-16T03:01:41.696Z,102391.12
2019-02-16T03:04:12.049Z,102387.59
2019-02-16T03:06:42.323Z,102387.14
2019-02-16T03:09:12.624Z,102382.13
2019-02-16T03:11:42.909Z,102386.44
2019-02-16T03:14:13.202Z,102383.55
2019-02-16T03:16:43.457Z,102384.84
2019-02-16T03:19:13.720Z,102376.84
2019-02-16T03:21:43.987Z,102382.73
2019-02-16T03:24:14.252Z,102384.42
2019-02-16T03:26:47.987Z,102381.47
2019-02-16T03:29:27.546Z,102379.46
2019-02-16T03:32:33.195Z,102383.44
2019-02-16T03:35:12.754Z,102381.91
2019-02-16T03:38:09.124Z,102381.58
2019-02-16T03:40:40.185Z,102376.89
2019-02-16T03:43:10.472Z,102381.96
2019-02-16T03:45:40.780Z,102380.92
2019-02-16T03:48:11.167Z,102386.33
2019-02-16T03:50:41.430Z,102380.32
2019-02-16T03:53:11.705Z,102378.79
2019-02-16T03:55:42.000Z,102378.63
2019-02-16T03:58:12.226Z,102377.09
2019-02-16T04:00:42.498Z,102373.00
2019-02-16T04:03:12.846Z,102376.23
2019-02-16T04:05:43.136Z,102374.97
2019-02-16T04:08:14.954Z,102375.25
2019-02-16T04:10:45.292Z,102375.73
2019-02-16T04:13:15.586Z,102370.66
2019-02-16T04:15:45.923Z,102362.31
2019-02-16T04:18:16.189Z,102363.23
2019-02-16T04:20:46.538Z,102365.53
2019-02-16T04:23:16.791Z,102358.06
2019-02-16T04:25:47.153Z,102364.67
2019-02-16T04:28:17.406Z,102353.53
2019-02-16T04:30:47.708Z,102356.05
2019-02-16T04:33:17.983Z,102352.44
2019-02-16T04:35:48.272Z,102348.28
2019-02-16T04:38:18.535Z,102342.77
2019-02-16T04:40:49.661Z,102349.58
2019-02-16T04:43:19.933Z,102351.67
2019-02-16T04:45:50.205Z,102350.34
2019-02-16T04:48:20.463Z,102342.65
2019-02-16T04:50:50.888Z,102333.42
2019-02-16T04:53:21.164Z,102336.27
2019-02-16T04:55:51.441Z,102331.45
2019-02-16T04:58:21.708Z,102334.82
2019-02-16T05:00:51.990Z,102326.80
2019-02-16T05:03:22.361Z,102323.53
2019-02-16T05:05:52.708Z,102322.58
2019-02-16T05:08:23.085Z,102316.97
2019-02-16T05:10:53.356Z,102315.00
2019-02-16T05:13:23.636Z,102315.38
2019-02-16T05:15:53.924Z,102308.72
2019-02-16T05:18:24.230Z,102315.61
2019-02-16T05:20:54.584Z,102311.52
2019-02-16T05:23:24.852Z,102320.99
2019-02-16T05:25:55.191Z,102313.90
2019-02-16T05:28:25.469Z,102321.30
2019-02-16T05:30:55.738Z,102307.23
2019-02-16T05:33:26.001Z,102310.15
2019-02-16T05:35:56.277Z,102307.53
2019-02-16T05:38:26.531Z,102304.55
2019-02-16T05:40:56.823Z,102306.25
2019-02-16T05:43:27.156Z,102309.23
2019-02-16T05:45:57.573Z,102303.98
2019-02-16T05:48:27.904Z,102305.80
2019-02-16T05:50:58.243Z,102301.13
2019-02-16T05:53:28.503Z,102307.91
2019-02-16T05:55:58.849Z,102309.22
2019-02-16T05:58:29.166Z,102318.39
2019-02-16T06:00:59.501Z,102320.31
2019-02-16T06:03:29.853Z,102321.06
2019-02-16T06:06:00.117Z,102314.53
2019-02-16T06:08:30.515Z,102319.94
2019-02-16T06:11:00.796Z,102314.20
2019-02-16T06:13:31.132Z,102305.91
2019-02-16T06:16:01.489Z,102314.26
2019-02-16T06:18:31.776Z,102322.53
2019-02-16T06:21:02.169Z,102317.75
2019-02-16T06:23:32.480Z,102312.27
2019-02-16T06:26:02.756Z,102316.67
2019-02-16T06:28:33.071Z,102316.69
2019-02-16T06:31:03.364Z,102316.94
2019-02-16T06:33:33.631Z,102316.49
2019-02-16T06:36:05.566Z,102316.56
2019-02-16T06:38:35.838Z,102317.12
2019-02-16T06:41:06.180Z,102318.00
2019-02-16T06:43:36.473Z,102322.58
2019-02-16T06:46:06.727Z,102313.87
2019-02-16T06:48:36.995Z,102313.11
2019-02-16T06:51:07.815Z,102318.07
2019-02-16T06:53:38.102Z,102316.57
2019-02-16T06:56:10.153Z,102320.73
2019-02-16T06:58:40.430Z,102316.59
2019-02-16T07:01:10.807Z,102320.78
2019-02-16T07:03:41.163Z,102325.22
2019-02-16T07:06:11.551Z,102325.36
2019-02-16T07:08:41.818Z,102331.64
2019-02-16T07:11:12.271Z,102331.81
2019-02-16T07:13:42.616Z,102325.91
2019-02-16T07:16:23.339Z,102325.63
2019-02-16T07:19:10.454Z,102318.36
2019-02-16T07:21:40.711Z,102316.81
2019-02-16T07:24:10.989Z,102317.94
2019-02-16T07:26:41.293Z,102310.37
2019-02-16T07:29:11.558Z,102311.48
2019-02-16T07:31:41.823Z,102311.77
2019-02-16T07:34:12.239Z,102302.85
2019-02-16T07:36:42.514Z,102302.77
2019-02-16T07:39:12.839Z,102287.72
2019-02-16T07:41:43.117Z,102294.48
2019-02-16T07:44:15.036Z,102294.89
2019-02-16T07:46:46.959Z,102291.14
2019-02-16T07:49:18.885Z,102288.85
2019-02-16T07:52:08.997Z,102285.20
2019-02-16T07:54:46.818Z,102291.86
2019-02-16T07:57:30.806Z,102287.91
2019-02-16T08:00:11.563Z,102289.66
2019-02-16T08:02:57.240Z,102288.11
2019-02-16T08:05:35.829Z,102282.52
2019-02-16T08:08:17.112Z,102280.27
2019-02-16T08:10:53.639Z,102272.52
2019-02-16T08:13:33.825Z,102269.48
2019-02-16T08:16:08.696Z,102270.36
2019-02-16T08:18:40.652Z,102273.90
2019-02-16T08:21:15.543Z,102269.12
2019-02-16T08:24:05.815Z,102269.21
2019-02-16T08:26:46.974Z,102267.11
2019-02-16T08:29:18.939Z,102266.68
2019-02-16T08:32:09.842Z,102267.87
2019-02-16T08:34:48.341Z,102261.27
2019-02-16T08:37:25.931Z,102256.97
2019-02-16T08:39:58.039Z,102259.48
2019-02-16T08:42:30.732Z,102255.86
2019-02-16T08:45:08.373Z,102259.59
2019-02-16T08:47:52.056Z,102259.45
2019-02-16T08:50:23.990Z,102258.30
2019-02-16T08:53:01.552Z,102254.98
2019-02-16T08:55:33.466Z,102256.26
2019-02-16T08:58:08.017Z,102247.20
2019-02-16T09:00:39.927Z,102251.34
2019-02-16T09:03:21.190Z,102250.98
2019-02-16T09:05:58.849Z,102246.91
2019-02-16T09:08:47.237Z,102238.45
2019-02-16T09:11:31.489Z,102240.05
2019-02-16T09:14:03.475Z,102246.45
2019-02-16T09:16:53.536Z,102244.57
2019-02-16T09:19:25.502Z,102241.09
2019-02-16T09:22:00.584Z,102237.41
2019-02-16T09:24:38.245Z,102234.95
2019-02-16T09:27:26.457Z,102239.70
2019-02-16T09:30:10.749Z,102233.83
2019-02-16T09:32:58.963Z,102231.98
2019-02-16T09:35:34.115Z,102231.94
2019-02-16T09:38:08.861Z,102230.47
2019-02-16T09:40:46.700Z,102224.39
2019-02-16T09:43:19.602Z,102223.27
2019-02-16T09:45:51.524Z,102220.91
2019-02-16T09:48:35.663Z,102210.95
2019-02-16T09:51:07.748Z,102213.91
2019-02-16T09:53:39.586Z,102210.16
2019-02-16T09:56:11.505Z,102206.95
2019-02-16T09:58:43.487Z,102211.74
2019-02-16T10:01:15.482Z,102214.87
2019-02-16T10:03:53.865Z,102212.50
2019-02-16T10:06:28.688Z,102196.61
2019-02-16T10:09:00.617Z,102196.61
2019-02-16T10:11:47.371Z,102192.66
2019-02-16T10:14:19.302Z,102183.69
2019-02-16T10:17:00.185Z,102185.58
2019-02-16T10:19:39.595Z,102184.06
2019-02-16T10:22:20.588Z,102177.12
2019-02-16T10:24:52.527Z,102177.80
2019-02-16T10:27:33.991Z,102175.67
2019-02-16T10:30:12.799Z,102168.84
2019-02-16T10:32:50.647Z,102170.52
2019-02-16T10:35:38.968Z,102163.20
2019-02-16T10:38:25.932Z,102142.57
2019-02-16T10:40:58.103Z,102160.97
2019-02-16T10:43:36.596Z,102137.44
2019-02-16T10:46:11.596Z,102146.14
2019-02-16T10:48:43.516Z,102143.03
2019-02-16T10:51:31.988Z,102134.67
2019-02-16T10:54:07.925Z,102133.04
2019-02-16T10:56:49.003Z,102125.44
2019-02-16T10:59:26.826Z,102125.44
2019-02-16T11:01:58.755Z,102123.04
2019-02-16T11:04:38.337Z,102095.78
2019-02-16T11:07:10.046Z,102095.78
2019-02-16T11:09:42.944Z,102112.88
2019-02-16T11:12:26.931Z,102107.55
2019-02-16T11:15:07.852Z,102099.98
2019-02-16T11:17:48.567Z,102099.27
2019-02-16T11:20:20.642Z,102098.16
2019-02-16T11:23:01.556Z,102095.06
2019-02-16T11:25:48.889Z,102091.20
2019-02-16T11:28:32.800Z,102095.01
2019-02-16T11:31:10.894Z,102093.31
2019-02-16T11:33:45.680Z,102090.36
2019-02-16T11:36:20.593Z,102083.46
2019-02-16T11:38:52.915Z,102083.20
2019-02-16T11:41:44.474Z,102082.20
2019-02-16T11:44:17.135Z,102084.75
2019-02-16T11:46:58.304Z,102079.33
2019-02-16T11:49:46.714Z,102073.35
2019-02-16T11:52:24.765Z,102071.88
2019-02-16T11:54:56.779Z,102061.38
2019-02-16T11:57:40.661Z,102063.49
2019-02-16T12:00:16.111Z,102064.62
2019-02-16T12:02:58.501Z,102066.70
2019-02-16T12:05:45.481Z,102067.61
2019-02-16T12:08:33.836Z,102053.91
2019-02-16T12:11:06.258Z,102040.47
2019-02-16T12:13:41.393Z,102038.95
2019-02-16T12:16:15.976Z,102048.50
2019-02-16T12:18:47.889Z,102047.63
2019-02-16T12:21:19.872Z,102044.76
2019-02-16T12:23:54.471Z,102033.22
2019-02-16T12:26:26.637Z,102030.42
2019-02-16T12:29:01.513Z,102029.98
2019-02-16T12:31:36.219Z,102018.70
2019-02-16T12:34:18.047Z,102016.33
2019-02-16T12:36:51.941Z,102012.83
2019-02-16T12:39:35.891Z,102017.54
2019-02-16T12:42:13.844Z,102008.44
2019-02-16T12:44:48.206Z,102016.31
2019-02-16T12:47:22.839Z,102018.47
2019-02-16T12:49:57.691Z,102014.98
2019-02-16T12:52:29.612Z,102014.92
2019-02-16T12:55:01.532Z,102018.41
2019-02-16T12:57:34.565Z,102008.92
2019-02-16T13:00:12.562Z,102012.58
2019-02-16T13:02:44.551Z,101996.98
2019-02-16T13:05:22.518Z,101992.38
2019-02-16T13:07:54.490Z,101990.94
2019-02-16T13:10:38.365Z,101991.90
2019-02-16T13:13:25.235Z,101987.00
2019-02-16T13:16:02.909Z,101990.48
2019-02-16T13:18:34.813Z,101988.88
2019-02-16T13:21:06.756Z,101978.26
2019-02-16T13:23:41.509Z,101977.02
2019-02-16T13:26:13.454Z,101977.88
2019-02-16T13:29:01.876Z,101973.41
2019-02-16T13:31:33.836Z,101968.52
2019-02-16T13:34:20.661Z,101972.41
2019-02-16T13:36:58.522Z,101966.79
2019-02-16T13:39:40.495Z,101963.91
2019-02-16T13:42:12.528Z,101959.79
2019-02-16T13:44:56.811Z,101964.58
2019-02-16T13:47:28.738Z,101962.06
2019-02-16T13:50:00.650Z,101958.35
2019-02-16T13:52:32.665Z,101962.67
2019-02-16T13:55:04.598Z,101931.69
2019-02-16T13:57:45.328Z,101948.02
2019-02-16T14:00:23.083Z,101944.69
2019-02-16T14:02:54.996Z,101938.09
2019-02-16T14:05:26.903Z,101937.07
2019-02-16T14:08:01.764Z,101933.63
2019-02-16T14:10:52.113Z,101937.45
2019-02-16T14:13:24.200Z,101934.30
2019-02-16T14:16:02.196Z,101910.61
2019-02-16T14:18:32.712Z,101913.23
2019-02-16T14:21:03.004Z,101911.61
2019-02-16T14:23:33.285Z,101910.68
2019-02-16T14:26:03.559Z,101899.28
2019-02-16T14:28:33.818Z,101904.44
2019-02-16T14:31:04.320Z,101911.42
2019-02-16T14:33:34.599Z,101901.25
2019-02-16T14:36:04.873Z,101892.84
2019-02-16T14:38:36.871Z,101895.27
2019-02-16T14:41:07.257Z,101898.19
2019-02-16T14:43:37.611Z,101886.09
2019-02-16T14:46:07.841Z,101886.69
2019-02-16T14:48:38.138Z,101878.98
2019-02-16T14:51:08.427Z,101875.87
2019-02-16T14:53:38.706Z,101871.45
2019-02-16T14:56:09.000Z,101867.94
2019-02-16T14:58:39.268Z,101868.72
2019-02-16T15:01:09.528Z,101865.83
2019-02-16T15:03:41.400Z,101871.54
2019-02-16T15:06:11.677Z,101861.80
2019-02-16T15:08:41.939Z,101834.81
2019-02-16T15:11:12.207Z,101834.81
2019-02-16T15:13:42.532Z,101857.36
2019-02-16T15:16:12.833Z,101853.77
2019-02-16T15:18:43.149Z,101854.88
2019-02-16T15:21:13.404Z,101843.56
2019-02-16T15:23:43.738Z,101839.14
2019-02-16T15:26:13.979Z,101838.23
2019-02-16T15:28:44.276Z,101835.28
2019-02-16T15:31:14.542Z,101834.90
2019-02-16T15:33:44.830Z,101837.61
2019-02-16T15:36:23.483Z,101839.34
2019-02-16T15:38:47.080Z,101830.28
2019-02-16T15:41:17.407Z,101838.97
2019-02-16T15:43:47.895Z,101834.91
2019-02-16T15:46:18.293Z,101837.08
2019-02-16T15:48:48.600Z,101846.19
2019-02-16T15:51:18.929Z,101854.19
2019-02-16T15:53:49.521Z,101845.75
2019-02-16T15:56:21.751Z,101839.31
2019-02-16T15:58:53.320Z,101830.00
2019-02-16T16:01:23.683Z,101818.96
2019-02-16T16:03:53.948Z,101818.03
2019-02-16T16:06:24.221Z,101804.16
2019-02-16T16:08:56.432Z,101813.72
2019-02-16T16:11:29.304Z,101825.83
2019-02-16T16:14:07.761Z,101823.89
2019-02-16T16:16:45.634Z,101828.73
2019-02-16T16:19:23.502Z,101826.23
2019-02-16T16:21:57.932Z,101827.38
2019-02-16T16:24:46.048Z,101819.36
2019-02-16T16:27:17.992Z,101818.17
2019-02-16T16:29:56.038Z,101816.09
2019-02-16T16:32:44.418Z,101814.25
2019-02-16T16:35:32.701Z,101819.45
2019-02-16T16:38:19.639Z,101823.73
2019-02-16T16:41:07.837Z,101825.42
2019-02-16T16:43:46.952Z,101814.54
2019-02-16T16:46:36.810Z,101819.40
2019-02-16T16:49:15.514Z,101820.03
2019-02-16T16:51:51.921Z,101817.18
2019-02-16T16:54:26.854Z,101816.25
2019-02-16T16:56:58.574Z,101822.47
2019-02-16T16:59:42.460Z,101829.64
2019-02-16T17:02:26.250Z,101835.72
2019-02-16T17:04:59.944Z,101840.09
2019-02-16T17:07:34.612Z,101834.97
2019-02-16T17:10:13.706Z,101832.48
2019-02-16T17:13:02.453Z,101831.66
2019-02-16T17:15:40.403Z,101830.51
2019-02-16T17:18:12.552Z,101836.72
2019-02-16T17:20:47.222Z,101833.47
2019-02-16T17:23:19.308Z,101825.75
2019-02-16T17:26:03.120Z,101826.37
2019-02-16T17:28:51.447Z,101831.69
2019-02-16T17:31:26.071Z,101832.63
2019-02-16T17:34:00.655Z,101826.45
2019-02-16T17:36:51.605Z,101827.23
2019-02-16T17:39:23.882Z,101826.42
2019-02-16T17:42:10.992Z,101827.47
2019-02-16T17:44:45.563Z,101824.47
2019-02-16T17:47:35.162Z,101819.47
2019-02-16T17:50:10.323Z,101826.70
2019-02-16T17:52:42.326Z,101815.83
2019-02-16T17:55:26.244Z,101820.39
2019-02-16T17:57:57.979Z,101820.48
2019-02-16T18:00:29.898Z,101816.32
2019-02-16T18:03:01.910Z,101819.48
2019-02-16T18:05:52.127Z,101821.64
2019-02-16T18:08:33.271Z,101819.33
2019-02-16T18:11:08.277Z,101824.13
2019-02-16T18:13:40.326Z,101820.95
2019-02-16T18:16:15.258Z,101815.70
2019-02-16T18:18:47.172Z,101816.80
2019-02-16T18:21:22.023Z,101808.56
2019-02-16T18:23:53.944Z,101815.72
2019-02-16T18:26:28.774Z,101816.25
2019-02-16T18:29:17.164Z,101818.53
2019-02-16T18:32:01.096Z,101820.66
2019-02-16T18:34:33.002Z,101829.14
2019-02-16T18:37:10.949Z,101829.30
2019-02-16T18:39:50.124Z,101829.13
2019-02-16T18:42:22.225Z,101829.65
2019-02-16T18:47:50.523Z,101831.83
2019-02-16T18:50:39.575Z,101830.52
2019-02-16T18:53:29.589Z,101830.56
2019-02-16T18:56:01.525Z,101828.71
2019-02-16T18:58:52.837Z,101827.73
2019-02-16T19:01:42.682Z,101828.71
2019-02-16T19:04:30.907Z,101824.69
2019-02-16T19:07:11.743Z,101829.51
2019-02-16T19:09:46.624Z,101834.81
2019-02-16T19:12:34.921Z,101832.56
2019-02-16T19:15:11.780Z,101836.13
2019-02-16T19:17:46.343Z,101835.22
2019-02-16T19:20:20.949Z,101831.70
2019-02-16T19:23:05.871Z,101832.41
2019-02-16T19:25:37.880Z,101831.06
2019-02-16T19:28:10.000Z,101836.32
2019-02-16T19:30:41.922Z,101829.12
2019-02-16T19:33:14.508Z,101823.87
2019-02-16T19:35:52.499Z,101816.22
2019-02-16T19:38:27.146Z,101820.25
2019-02-16T19:41:18.338Z,101829.17
2019-02-16T19:43:53.459Z,101821.23
2019-02-16T19:46:28.401Z,101825.20
2019-02-16T19:49:16.797Z,101827.84
2019-02-16T19:51:49.491Z,101830.42
2019-02-16T19:54:33.475Z,101826.16
2019-02-16T19:57:14.260Z,101821.38
2019-02-16T20:00:02.948Z,101824.93
2019-02-16T20:02:39.010Z,101820.41
2019-02-16T20:05:20.064Z,101815.81
2019-02-16T20:07:52.156Z,101819.90
2019-02-16T20:10:30.562Z,101823.81
2019-02-16T20:13:04.765Z,101820.72
2019-02-16T20:15:42.559Z,101830.22
2019-02-16T20:18:30.870Z,101818.55
2019-02-16T20:21:16.370Z,101822.59
2019-02-16T20:23:54.313Z,101817.67
2019-02-16T20:26:40.130Z,101814.03
2019-02-16T20:29:23.879Z,101810.33
2019-02-16T20:32:15.715Z,101809.01
2019-02-16T20:34:58.037Z,101807.67
2019-02-16T20:37:46.375Z,101810.78
2019-02-16T20:40:22.743Z,101813.34
2019-02-16T20:42:57.971Z,101820.77
2019-02-16T20:45:51.423Z,101813.22
2019-02-16T20:48:29.680Z,101815.52
2019-02-16T20:51:02.077Z,101820.81
2019-02-16T20:53:37.905Z,101820.81
2019-02-16T20:56:12.607Z,101821.11
2019-02-16T20:58:44.968Z,101820.53
2019-02-16T21:01:19.593Z,101823.76
2019-02-16T21:03:54.491Z,101823.91
2019-02-16T21:06:32.534Z,101822.28
2019-02-16T21:09:20.882Z,101828.58
2019-02-16T21:12:01.687Z,101829.95
2019-02-16T21:14:43.430Z,101828.25
2019-02-16T21:17:21.299Z,101830.94
2019-02-16T21:19:59.127Z,101825.57
2019-02-16T21:22:31.023Z,101831.31
2019-02-16T21:25:05.916Z,101837.55
2019-02-16T21:27:37.806Z,101831.92
2019-02-16T21:30:16.940Z,101835.53
2019-02-16T21:32:49.151Z,101836.53
2019-02-16T21:35:21.156Z,101834.45
2019-02-16T21:38:09.442Z,101836.72
2019-02-16T21:40:47.291Z,101837.17
2019-02-16T21:43:25.402Z,101836.36
2019-02-16T21:46:13.970Z,101837.28
2019-02-16T21:48:49.148Z,101837.27
2019-02-16T21:51:29.634Z,101844.31
2019-02-16T21:54:05.455Z,101840.34
2019-02-16T21:56:40.719Z,101842.98
2019-02-16T21:59:31.114Z,101841.23
2019-02-16T22:02:12.228Z,101841.22
2019-02-16T22:05:02.098Z,101834.64
2019-02-16T22:07:43.457Z,101850.01
2019-02-16T22:10:15.657Z,101842.98
2019-02-16T22:12:51.492Z,101842.97
2019-02-16T22:15:22.140Z,101841.66
2019-02-16T22:17:52.812Z,101846.00
2019-02-16T22:20:24.626Z,101846.79
2019-02-16T22:22:55.092Z,101843.69
2019-02-16T22:25:25.359Z,101846.31
2019-02-16T22:27:55.923Z,101851.14
2019-02-16T22:30:26.315Z,101845.85
2019-02-16T22:32:57.373Z,101843.63
2019-02-16T22:35:27.747Z,101844.95
2019-02-16T22:37:58.047Z,101847.53
2019-02-16T22:40:29.280Z,101845.34
2019-02-16T22:42:59.537Z,101848.36
2019-02-16T22:45:29.965Z,101854.40
2019-02-16T22:48:00.388Z,101853.90
2019-02-16T22:50:30.675Z,101843.78
2019-02-16T22:53:00.951Z,101845.55
2019-02-16T22:55:32.150Z,101848.58
2019-02-16T22:58:02.415Z,101844.16
2019-02-16T23:00:46.300Z,101851.18
2019-02-16T23:03:18.770Z,101844.14
2019-02-16T23:05:49.106Z,101845.41
2019-02-16T23:08:19.420Z,101845.86
2019-02-16T23:10:49.672Z,101841.02
2019-02-16T23:13:19.986Z,101847.95
2019-02-16T23:15:50.261Z,101851.78
2019-02-16T23:18:21.771Z,101848.25
2019-02-16T23:20:52.044Z,101842.59
2019-02-16T23:23:22.331Z,101845.30
2019-02-16T23:25:52.617Z,101850.08
2019-02-16T23:28:23.094Z,101840.39
2019-02-16T23:30:53.615Z,101843.46
2019-02-16T23:33:23.941Z,101846.98
2019-02-16T23:35:54.204Z,101834.69
2019-02-16T23:38:24.497Z,101841.25
2019-02-16T23:40:54.783Z,101841.22
2019-02-16T23:43:27.114Z,101843.77
2019-02-16T23:45:57.379Z,101838.18
2019-02-16T23:48:27.732Z,101843.09
2019-02-16T23:50:58.000Z,101833.13
2019-02-16T23:53:28.295Z,101831.27
2019-02-16T23:55:59.352Z,101832.14
2019-02-16T23:58:29.623Z,101833.05
